createdAt,value
2022-08-23T00:02:24.914Z,5.47
2022-08-23T00:05:03.632Z,8.57
2022-08-23T00:07:45.976Z,6.28
2022-08-23T00:10:16.298Z,5.35
2022-08-23T00:12:45.537Z,6.75
2022-08-23T00:15:15.018Z,6.60
2022-08-23T00:17:42.563Z,5.15
2022-08-23T00:20:15.344Z,4.57
2022-08-23T00:22:42.719Z,8.15
2022-08-23T00:25:13.612Z,7.05
2022-08-23T00:27:41.273Z,7.97
2022-08-23T00:30:10.765Z,7.10
2022-08-23T00:32:39.925Z,4.57
2022-08-23T00:35:09.999Z,5.75
2022-08-23T00:37:42.325Z,5.65
2022-08-23T00:40:16.855Z,6.70
2022-08-23T00:43:10.325Z,4.80
2022-08-23T00:46:03.396Z,5.05
2022-08-23T00:48:36.599Z,5.05
2022-08-23T00:51:17.080Z,6.07
2022-08-23T00:53:49.676Z,4.20
2022-08-23T00:56:22.763Z,8.02
2022-08-23T00:58:50.403Z,5.88
2022-08-23T01:01:20.149Z,4.60
2022-08-23T01:03:57.111Z,5.53
2022-08-23T01:06:37.374Z,8.68
2022-08-23T01:09:19.616Z,5.93
2022-08-23T01:11:51.397Z,5.30
2022-08-23T01:14:26.720Z,7.75
2022-08-23T01:17:03.356Z,4.35
2022-08-23T01:19:39.518Z,6.47
2022-08-23T01:22:16.115Z,4.78
2022-08-23T01:25:06.514Z,8.00
2022-08-23T01:27:32.165Z,7.05
2022-08-23T01:30:05.183Z,6.65
2022-08-23T01:32:43.086Z,5.68
2022-08-23T01:35:11.402Z,6.78
2022-08-23T01:37:41.742Z,9.10
2022-08-23T01:40:11.839Z,3.78
2022-08-23T01:42:43.907Z,6.30
2022-08-23T01:45:13.271Z,5.50
2022-08-23T01:47:41.454Z,4.90
2022-08-23T01:50:10.341Z,6.05
2022-08-23T01:52:57.310Z,7.57
2022-08-23T01:55:25.156Z,6.30
2022-08-23T01:57:58.581Z,6.03
2022-08-23T02:00:31.371Z,7.22
2022-08-23T02:03:01.532Z,6.53
2022-08-23T02:05:32.609Z,7.60
2022-08-23T02:08:22.028Z,4.60
2022-08-23T02:10:49.398Z,8.43
2022-08-23T02:13:22.114Z,5.65
2022-08-23T02:15:52.551Z,6.18
2022-08-23T02:18:20.862Z,7.72
2022-08-23T02:20:51.438Z,7.20
2022-08-23T02:23:24.197Z,7.18
2022-08-23T02:25:54.244Z,7.20
2022-08-23T02:28:23.685Z,4.97
2022-08-23T02:30:52.168Z,8.85
2022-08-23T02:33:19.827Z,7.72
2022-08-23T02:35:48.061Z,6.32
2022-08-23T02:38:18.203Z,5.50
2022-08-23T02:40:53.056Z,6.55
2022-08-23T02:43:35.668Z,6.38
2022-08-23T02:46:08.280Z,5.78
2022-08-23T02:48:36.288Z,7.05
2022-08-23T02:51:08.613Z,6.35
2022-08-23T02:53:38.601Z,7.57
2022-08-23T02:56:06.329Z,7.30
2022-08-23T02:58:47.387Z,7.32
2022-08-23T03:01:29.483Z,7.25
2022-08-23T03:03:57.574Z,8.07
2022-08-23T03:06:27.383Z,4.38
2022-08-23T03:08:55.743Z,7.63
2022-08-23T03:11:25.015Z,6.05
2022-08-23T03:13:54.034Z,4.95
2022-08-23T03:16:22.107Z,7.47
2022-08-23T03:18:50.115Z,7.88
2022-08-23T03:21:18.446Z,5.82
2022-08-23T03:23:46.034Z,5.45
2022-08-23T03:26:19.242Z,6.97
2022-08-23T03:28:49.494Z,5.97
2022-08-23T03:31:21.076Z,5.88
2022-08-23T03:33:51.482Z,6.80
2022-08-23T03:36:21.434Z,7.35
2022-08-23T03:38:58.341Z,8.68
2022-08-23T03:41:26.461Z,6.97
2022-08-23T03:43:55.793Z,8.73
2022-08-23T03:46:23.728Z,10.52
2022-08-23T03:49:02.513Z,5.63
2022-08-23T03:51:34.401Z,8.32
2022-08-23T03:54:04.190Z,7.10
2022-08-23T03:56:37.733Z,8.00
2022-08-23T03:59:13.595Z,8.38
2022-08-23T04:01:40.854Z,8.07
2022-08-23T04:04:10.740Z,9.05
2022-08-23T04:06:38.368Z,8.13
2022-08-23T04:09:10.059Z,7.03
2022-08-23T04:11:37.305Z,7.78
2022-08-23T04:14:04.605Z,7.78
2022-08-23T04:16:37.543Z,9.65
2022-08-23T04:19:16.183Z,8.73
2022-08-23T04:21:52.681Z,7.90
2022-08-23T04:24:20.111Z,7.80
2022-08-23T04:26:49.637Z,15.07
2022-08-23T04:29:34.260Z,14.45
2022-08-23T04:32:07.827Z,16.60
2022-08-23T04:34:45.636Z,10.43
2022-08-23T04:37:18.596Z,10.63
2022-08-23T04:40:04.237Z,9.88
2022-08-23T04:42:33.942Z,11.90
2022-08-23T04:45:01.607Z,11.23
2022-08-23T04:47:28.771Z,11.35
2022-08-23T04:50:00.369Z,12.27
2022-08-23T04:52:27.605Z,11.63
2022-08-23T04:54:57.052Z,8.93
2022-08-23T04:57:24.283Z,8.60
2022-08-23T04:59:53.822Z,12.85
2022-08-23T05:02:23.535Z,9.90
2022-08-23T05:04:54.023Z,13.20
2022-08-23T05:07:41.804Z,9.40
2022-08-23T05:10:15.619Z,14.70
2022-08-23T05:12:45.476Z,11.93
2022-08-23T05:15:13.553Z,17.85
2022-08-23T05:17:43.700Z,14.52
2022-08-23T05:20:11.187Z,16.15
2022-08-23T05:22:40.973Z,21.63
2022-08-23T05:25:08.966Z,19.85
2022-08-23T05:27:36.698Z,18.38
2022-08-23T05:30:05.998Z,16.83
2022-08-23T05:32:37.979Z,10.73
2022-08-23T05:35:17.293Z,12.27
2022-08-23T05:37:44.621Z,13.85
2022-08-23T05:40:14.540Z,13.23
2022-08-23T05:42:42.473Z,12.63
2022-08-23T05:45:10.455Z,17.25
2022-08-23T05:47:41.989Z,12.10
2022-08-23T05:50:11.147Z,13.35
2022-08-23T05:52:41.513Z,16.20
2022-08-23T05:55:14.084Z,14.88
2022-08-23T05:57:41.583Z,12.00
2022-08-23T06:00:15.584Z,15.95
2022-08-23T06:02:45.278Z,19.73
2022-08-23T06:05:17.185Z,14.95
2022-08-23T06:07:44.409Z,20.05
2022-08-23T06:10:16.330Z,12.05
2022-08-23T06:12:46.140Z,9.13
2022-08-23T06:15:18.063Z,19.35
2022-08-23T06:17:47.298Z,17.70
2022-08-23T06:20:16.100Z,13.48
2022-08-23T06:22:43.326Z,17.63
2022-08-23T06:25:12.930Z,13.05
2022-08-23T06:27:42.308Z,14.73
2022-08-23T06:30:12.482Z,16.23
2022-08-23T06:32:40.924Z,16.55
2022-08-23T06:35:32.951Z,15.75
2022-08-23T06:38:02.685Z,15.00
2022-08-23T06:40:32.514Z,12.48
2022-08-23T06:43:02.263Z,15.13
2022-08-23T06:45:34.791Z,17.35
2022-08-23T06:48:02.789Z,10.18
2022-08-23T06:50:32.642Z,13.30
2022-08-23T06:53:00.139Z,12.05
2022-08-23T06:55:31.350Z,14.35
2022-08-23T06:57:58.793Z,17.75
2022-08-23T07:00:26.097Z,11.52
2022-08-23T07:02:53.476Z,14.77
2022-08-23T07:05:27.563Z,11.23
2022-08-23T07:07:54.847Z,13.43
2022-08-23T07:10:24.355Z,9.18
2022-08-23T07:12:57.379Z,8.98
2022-08-23T07:15:24.652Z,13.77
2022-08-23T07:17:56.459Z,11.07
2022-08-23T07:20:26.554Z,10.77
2022-08-23T07:22:56.334Z,24.65
2022-08-23T07:25:27.112Z,27.55
2022-08-23T07:27:54.459Z,16.83
2022-08-23T07:30:24.379Z,18.80
2022-08-23T07:32:56.333Z,17.95
2022-08-23T07:35:26.153Z,11.07
2022-08-23T07:37:55.729Z,16.65
2022-08-23T07:40:27.748Z,15.75
2022-08-23T07:42:57.461Z,15.88
2022-08-23T07:45:27.052Z,8.38
2022-08-23T07:47:57.110Z,10.48
2022-08-23T07:50:30.594Z,16.50
2022-08-23T07:52:58.100Z,13.18
2022-08-23T07:55:27.741Z,9.25
2022-08-23T07:57:55.142Z,13.68
2022-08-23T08:00:24.619Z,18.42
2022-08-23T08:02:56.791Z,7.93
2022-08-23T08:05:26.265Z,8.90
2022-08-23T08:07:55.537Z,10.40
2022-08-23T08:10:22.849Z,8.98
2022-08-23T08:12:50.102Z,6.60
2022-08-23T08:15:21.974Z,6.93
2022-08-23T08:17:51.957Z,10.80
2022-08-23T08:20:22.325Z,7.18
2022-08-23T08:22:58.596Z,6.28
2022-08-23T08:25:32.912Z,11.05
2022-08-23T08:28:02.748Z,7.90
2022-08-23T08:30:30.258Z,6.75
2022-08-23T08:33:00.304Z,8.30
2022-08-23T08:35:32.614Z,8.32
2022-08-23T08:38:04.766Z,6.30
2022-08-23T08:40:40.164Z,3.00
2022-08-23T08:43:42.472Z,5.50
2022-08-23T08:46:38.891Z,4.40
2022-08-23T08:49:15.936Z,7.03
2022-08-23T08:52:05.256Z,8.52
2022-08-23T08:54:35.853Z,9.05
2022-08-23T08:57:04.756Z,8.20
2022-08-23T08:59:52.151Z,7.10
2022-08-23T09:02:32.287Z,6.47
2022-08-23T09:05:03.730Z,4.95
2022-08-23T09:08:01.148Z,7.53
2022-08-23T09:11:00.668Z,3.67
2022-08-23T09:13:33.613Z,3.35
2022-08-23T09:16:21.882Z,2.83
2022-08-23T09:18:49.346Z,2.38
2022-08-23T09:21:20.363Z,2.15
2022-08-23T09:24:00.446Z,3.00
2022-08-23T09:26:33.171Z,13.30
2022-08-23T09:29:04.819Z,7.57
2022-08-23T09:31:42.687Z,4.75
2022-08-23T09:34:18.871Z,3.15
2022-08-23T09:36:46.252Z,5.32
2022-08-23T09:39:31.332Z,3.33
2022-08-23T09:42:02.495Z,6.68
2022-08-23T09:44:43.516Z,6.65
2022-08-23T09:47:15.724Z,9.15
2022-08-23T09:49:48.640Z,26.40
2022-08-23T09:52:32.744Z,5.28
2022-08-23T09:55:09.485Z,5.28
2022-08-23T09:57:41.500Z,5.70
2022-08-23T10:00:22.122Z,6.28
2022-08-23T10:02:49.534Z,20.88
2022-08-23T10:05:16.737Z,14.27
2022-08-23T10:07:56.698Z,15.80
2022-08-23T10:10:49.098Z,26.73
2022-08-23T10:13:21.949Z,10.95
2022-08-23T10:15:58.487Z,6.68
2022-08-23T10:18:48.815Z,5.78
2022-08-23T10:21:24.739Z,4.20
2022-08-23T10:24:18.190Z,6.28
2022-08-23T10:27:00.538Z,11.38
2022-08-23T10:29:53.453Z,5.50
2022-08-23T10:32:28.038Z,10.25
2022-08-23T10:35:06.426Z,8.70
2022-08-23T10:37:55.351Z,13.10
2022-08-23T10:40:28.938Z,4.43
2022-08-23T10:43:16.866Z,8.98
2022-08-23T10:45:47.168Z,5.57
2022-08-23T10:48:28.444Z,5.30
2022-08-23T10:51:00.861Z,3.78
2022-08-23T10:54:01.716Z,2.88
2022-08-23T10:56:34.364Z,14.77
2022-08-23T10:59:20.740Z,11.23
2022-08-23T11:01:58.787Z,7.82
2022-08-23T11:04:46.472Z,15.63
2022-08-23T11:07:41.141Z,5.55
2022-08-23T11:10:29.138Z,5.05
2022-08-23T11:13:11.880Z,7.28
2022-08-23T11:15:59.283Z,10.77
2022-08-23T11:18:48.721Z,10.35
2022-08-23T11:21:20.858Z,6.03
2022-08-23T11:24:02.564Z,7.55
2022-08-23T11:26:31.385Z,7.28
2022-08-23T11:29:10.926Z,5.18
2022-08-23T11:31:47.463Z,4.85
2022-08-23T11:34:50.152Z,9.40
2022-08-23T11:37:20.410Z,15.43
2022-08-23T11:39:58.996Z,2.92
2022-08-23T11:42:38.459Z,4.35
2022-08-23T11:45:40.756Z,6.07
2022-08-23T11:48:29.932Z,3.53
2022-08-23T11:51:09.696Z,6.93
2022-08-23T11:53:55.121Z,1.38
2022-08-23T11:56:52.887Z,13.45
2022-08-23T11:59:41.635Z,1.75
2022-08-23T12:02:32.197Z,2.70
2022-08-23T12:05:32.639Z,2.58
2022-08-23T12:08:03.060Z,0.90
2022-08-23T12:10:42.633Z,5.45
2022-08-23T12:13:19.395Z,1.40
2022-08-23T12:16:17.459Z,0.93
2022-08-23T12:18:48.075Z,2.92
2022-08-23T12:21:31.772Z,3.60
2022-08-23T12:24:03.346Z,5.90
2022-08-23T12:27:04.739Z,3.55
2022-08-23T12:29:54.635Z,2.80
2022-08-23T12:32:30.404Z,4.28
2022-08-23T12:35:21.710Z,1.92
2022-08-23T12:38:10.748Z,2.90
2022-08-23T12:40:51.578Z,7.85
2022-08-23T12:43:23.747Z,7.30
2022-08-23T12:46:01.854Z,5.53
2022-08-23T12:48:32.110Z,5.15
2022-08-23T12:51:17.308Z,1.58
2022-08-23T12:53:47.258Z,1.50
2022-08-23T12:56:19.427Z,3.13
2022-08-23T12:58:57.721Z,1.50
2022-08-23T13:01:35.817Z,8.43
2022-08-23T13:04:09.285Z,2.65
2022-08-23T13:06:56.844Z,5.43
2022-08-23T13:09:33.436Z,18.75
2022-08-23T13:12:01.608Z,17.13
2022-08-23T13:14:47.422Z,9.68
2022-08-23T13:17:30.833Z,8.43
2022-08-23T13:20:07.105Z,7.65
2022-08-23T13:22:38.973Z,2.97
2022-08-23T13:25:29.594Z,1.58
2022-08-23T13:28:22.707Z,6.15
2022-08-23T13:31:03.797Z,7.18
2022-08-23T13:33:31.677Z,10.82
2022-08-23T13:36:19.554Z,3.85
2022-08-23T13:38:49.649Z,2.38
2022-08-23T13:41:38.777Z,1.40
2022-08-23T13:44:08.941Z,3.97
2022-08-23T13:46:45.990Z,6.72
2022-08-23T13:49:24.558Z,6.30
2022-08-23T13:52:26.351Z,7.53
2022-08-23T13:54:50.932Z,9.55
2022-08-23T13:57:27.373Z,14.43
2022-08-23T13:59:59.031Z,10.25
2022-08-23T14:02:31.160Z,7.63
2022-08-23T14:04:58.580Z,5.20
2022-08-23T14:07:28.087Z,9.40
2022-08-23T14:09:58.780Z,9.20
2022-08-23T14:12:31.702Z,4.93
2022-08-23T14:15:03.176Z,4.55
2022-08-23T14:17:41.434Z,4.93
2022-08-23T14:23:04.861Z,3.17
2022-08-23T14:25:39.958Z,3.28
2022-08-23T14:28:07.241Z,3.03
2022-08-23T14:30:38.989Z,4.13
2022-08-23T14:33:08.414Z,2.85
2022-08-23T14:35:38.101Z,3.40
2022-08-23T14:38:05.544Z,1.95
2022-08-23T14:40:34.994Z,9.82
2022-08-23T14:43:02.846Z,5.65
2022-08-23T14:45:30.175Z,4.15
2022-08-23T14:47:57.434Z,6.00
2022-08-23T14:50:29.221Z,3.97
2022-08-23T14:53:02.384Z,0.65
2022-08-23T14:55:32.032Z,2.45
2022-08-23T14:58:02.641Z,2.03
2022-08-23T15:00:31.385Z,2.05
2022-08-23T15:03:07.548Z,4.55
2022-08-23T15:05:38.983Z,2.63
2022-08-23T15:08:13.026Z,8.82
2022-08-23T15:10:50.427Z,13.73
2022-08-23T15:13:26.106Z,6.88
2022-08-23T15:15:56.838Z,4.88
2022-08-23T15:18:26.667Z,10.85
2022-08-23T15:20:56.542Z,6.25
2022-08-23T15:23:26.387Z,10.02
2022-08-23T15:25:58.476Z,12.63
2022-08-23T15:28:25.863Z,6.90
2022-08-23T15:30:55.751Z,8.20
2022-08-23T15:33:27.131Z,0.73
2022-08-23T15:35:58.865Z,6.03
2022-08-23T15:38:30.179Z,23.48
2022-08-23T15:40:58.270Z,12.35
2022-08-23T15:43:25.855Z,1.33
2022-08-23T15:46:07.902Z,1.15
2022-08-23T15:48:45.020Z,1.50
2022-08-23T15:51:18.187Z,7.35
2022-08-23T15:53:46.658Z,3.83
2022-08-23T15:56:18.870Z,2.38
2022-08-23T15:58:48.459Z,8.93
2022-08-23T16:01:21.699Z,9.27
2022-08-23T16:03:51.798Z,7.43
2022-08-23T16:06:19.385Z,7.88
2022-08-23T16:08:53.316Z,9.90
2022-08-23T16:11:26.166Z,8.98
2022-08-23T16:13:55.378Z,44.10
2022-08-23T16:16:30.966Z,12.73
2022-08-23T16:18:59.854Z,9.80
2022-08-23T16:21:31.897Z,6.65
2022-08-23T16:23:59.946Z,3.78
2022-08-23T16:26:35.378Z,11.80
2022-08-23T16:29:10.311Z,8.45
2022-08-23T16:31:40.088Z,2.15
2022-08-23T16:34:10.470Z,1.58
2022-08-23T16:36:41.277Z,0.80
2022-08-23T16:39:09.182Z,1.42
2022-08-23T16:41:42.187Z,4.13
2022-08-23T16:44:11.811Z,7.75
2022-08-23T16:46:43.945Z,1.98
2022-08-23T16:49:15.307Z,4.20
2022-08-23T16:51:48.592Z,8.68
2022-08-23T16:54:16.499Z,3.83
2022-08-23T16:56:43.752Z,3.05
2022-08-23T16:59:13.777Z,9.55
2022-08-23T17:01:47.046Z,1.75
2022-08-23T17:04:14.663Z,6.68
2022-08-23T17:06:41.932Z,6.05
2022-08-23T17:09:12.153Z,2.83
2022-08-23T17:11:43.656Z,7.18
2022-08-23T17:14:13.950Z,2.47
2022-08-23T17:16:42.287Z,0.88
2022-08-23T17:19:10.437Z,1.65
2022-08-23T17:21:41.612Z,1.38
2022-08-23T17:24:09.516Z,3.38
2022-08-23T17:26:37.665Z,1.00
2022-08-23T17:29:05.126Z,0.80
2022-08-23T17:31:34.703Z,1.42
2022-08-23T17:34:03.896Z,2.42
2022-08-23T17:36:35.311Z,2.08
2022-08-23T17:39:05.009Z,1.55
2022-08-23T17:41:37.205Z,2.15
2022-08-23T17:44:06.324Z,3.75
2022-08-23T17:46:38.577Z,2.08
2022-08-23T17:49:06.674Z,1.85
2022-08-23T17:51:41.070Z,0.98
2022-08-23T17:54:12.944Z,3.30
2022-08-23T17:56:50.574Z,2.55
2022-08-23T17:59:22.550Z,1.30
2022-08-23T18:01:49.769Z,1.23
2022-08-23T18:04:19.642Z,2.90
2022-08-23T18:06:49.088Z,1.65
2022-08-23T18:09:21.412Z,1.30
2022-08-23T18:11:48.603Z,1.23
2022-08-23T18:14:18.190Z,1.02
2022-08-23T18:16:47.652Z,1.33
2022-08-23T18:19:15.282Z,2.20
2022-08-23T18:21:43.831Z,2.47
2022-08-23T18:24:11.263Z,2.38
2022-08-23T18:26:57.431Z,0.93
2022-08-23T18:29:25.035Z,1.10
2022-08-23T18:31:52.385Z,1.65
2022-08-23T18:34:21.921Z,5.35
2022-08-23T18:36:49.409Z,1.00
2022-08-23T18:39:31.844Z,1.10
2022-08-23T18:42:05.140Z,2.58
2022-08-23T18:44:35.021Z,1.15
2022-08-23T18:47:03.245Z,2.10
2022-08-23T18:49:38.711Z,1.83
2022-08-23T18:52:06.520Z,1.00
2022-08-23T18:54:34.303Z,2.30
2022-08-23T18:57:04.184Z,1.45
2022-08-23T18:59:31.647Z,2.63
2022-08-23T19:01:59.555Z,2.00
2022-08-23T19:04:27.186Z,1.10
2022-08-23T19:06:54.586Z,1.77
2022-08-23T19:09:22.271Z,2.20
2022-08-23T19:11:50.168Z,3.22
2022-08-23T19:14:17.462Z,1.95
2022-08-23T19:16:48.343Z,1.73
2022-08-23T19:19:17.223Z,2.30
2022-08-23T19:21:47.180Z,2.10
2022-08-23T19:24:16.687Z,1.92
2022-08-23T19:26:48.907Z,1.70
2022-08-23T19:29:18.407Z,3.95
2022-08-23T19:31:49.192Z,1.33
2022-08-23T19:34:18.364Z,0.80
2022-08-23T19:36:51.147Z,1.95
2022-08-23T19:39:31.697Z,2.65
2022-08-23T19:42:01.492Z,1.95
2022-08-23T19:44:29.254Z,1.63
2022-08-23T19:46:56.727Z,1.67
2022-08-23T19:49:24.094Z,2.42
2022-08-23T19:51:53.995Z,1.52
2022-08-23T19:54:21.966Z,2.67
2022-08-23T19:56:57.632Z,3.17
2022-08-23T19:59:39.067Z,1.17
2022-08-23T20:02:08.312Z,2.03
2022-08-23T20:04:36.602Z,2.50
2022-08-23T20:07:09.139Z,1.25
2022-08-23T20:09:38.900Z,1.30
2022-08-23T20:12:06.392Z,1.17
2022-08-23T20:14:36.333Z,1.17
2022-08-23T20:17:07.537Z,3.72
2022-08-23T20:19:35.280Z,1.63
2022-08-23T20:22:22.356Z,2.95
2022-08-23T20:24:52.041Z,1.50
2022-08-23T20:27:28.994Z,1.98
2022-08-23T20:30:01.617Z,1.90
2022-08-23T20:32:30.114Z,3.67
2022-08-23T20:34:57.617Z,3.03
2022-08-23T20:37:27.294Z,2.25
2022-08-23T20:39:57.291Z,2.75
2022-08-23T20:42:24.755Z,1.45
2022-08-23T20:44:52.017Z,2.70
2022-08-23T20:47:22.244Z,1.83
2022-08-23T20:49:49.563Z,4.75
2022-08-23T20:52:18.288Z,1.75
2022-08-23T20:54:45.992Z,1.45
2022-08-23T20:57:15.325Z,1.92
2022-08-23T20:59:44.890Z,6.10
2022-08-23T21:02:13.050Z,1.58
2022-08-23T21:04:42.512Z,1.58
2022-08-23T21:07:09.908Z,2.22
2022-08-23T21:09:39.702Z,2.55
2022-08-23T21:12:07.096Z,3.03
2022-08-23T21:14:37.078Z,1.83
2022-08-23T21:17:06.603Z,3.10
2022-08-23T21:19:36.195Z,1.85
2022-08-23T21:22:05.671Z,3.65
2022-08-23T21:24:35.240Z,4.13
2022-08-23T21:27:09.607Z,2.83
2022-08-23T21:29:41.834Z,5.13
2022-08-23T21:32:09.952Z,3.33
2022-08-23T21:34:39.760Z,1.52
2022-08-23T21:37:09.359Z,2.90
2022-08-23T21:39:36.674Z,1.70
2022-08-23T21:42:14.957Z,2.35
2022-08-23T21:44:45.666Z,2.58
2022-08-23T21:47:16.050Z,6.18
2022-08-23T21:49:45.304Z,2.67
2022-08-23T21:52:12.521Z,2.88
2022-08-23T21:54:43.395Z,3.17
2022-08-23T21:57:13.629Z,4.35
2022-08-23T21:59:43.007Z,2.92
2022-08-23T22:02:14.433Z,2.72
2022-08-23T22:04:46.270Z,2.28
2022-08-23T22:07:16.167Z,1.75
2022-08-23T22:09:46.756Z,2.60
2022-08-23T22:12:16.283Z,1.75
2022-08-23T22:14:46.700Z,2.92
2022-08-23T22:17:15.365Z,2.08
2022-08-23T22:19:42.523Z,3.47
2022-08-23T22:22:09.778Z,3.92
2022-08-23T22:24:42.066Z,2.83
2022-08-23T22:27:09.397Z,6.30
2022-08-23T22:29:37.682Z,4.32
2022-08-23T22:32:07.673Z,4.65
2022-08-23T22:34:34.903Z,3.65
2022-08-23T22:37:02.067Z,2.30
2022-08-23T22:39:29.352Z,4.15
2022-08-23T22:41:58.959Z,4.20
2022-08-23T22:44:28.608Z,3.38
2022-08-23T22:46:57.433Z,3.03
2022-08-23T22:49:26.351Z,2.20
2022-08-23T22:51:55.161Z,2.50
2022-08-23T22:54:22.975Z,2.13
2022-08-23T22:56:54.063Z,2.30
2022-08-23T22:59:27.397Z,3.63
2022-08-23T23:02:03.326Z,3.25
2022-08-23T23:04:34.429Z,4.22
2022-08-23T23:07:04.084Z,2.42
2022-08-23T23:09:31.568Z,3.42
2022-08-23T23:11:58.744Z,2.40
2022-08-23T23:14:25.930Z,3.60
2022-08-23T23:16:53.406Z,3.55
2022-08-23T23:19:39.767Z,3.35
2022-08-23T23:22:08.186Z,2.20
2022-08-23T23:24:38.095Z,3.33
2022-08-23T23:27:06.908Z,2.80
2022-08-23T23:29:34.308Z,2.70
2022-08-23T23:32:01.709Z,3.05
2022-08-23T23:34:29.353Z,2.70
2022-08-23T23:36:58.422Z,3.45
2022-08-23T23:39:30.198Z,3.22
2022-08-23T23:42:00.574Z,3.30
2022-08-23T23:44:31.135Z,4.25
2022-08-23T23:47:01.335Z,2.70
2022-08-23T23:49:32.670Z,2.20
2022-08-23T23:52:02.577Z,2.53
2022-08-23T23:54:33.975Z,3.70
2022-08-23T23:57:04.570Z,3.08
2022-08-23T23:59:32.001Z,3.47
